sensor_id;sensor_type;location;lat;lon;timestamp;P1;durP1;ratioP1;P2;durP2;ratioP2
31464;SDS011;18089;47.428;15.006;2022-08-19T00:01:08;8.13;;;5.20;;
31464;SDS011;18089;47.428;15.006;2022-08-19T00:03:40;10.95;;;6.28;;
31464;SDS011;18089;47.428;15.006;2022-08-19T00:06:12;11.23;;;5.97;;
31464;SDS011;18089;47.428;15.006;2022-08-19T00:08:44;10.40;;;6.07;;
31464;SDS011;18089;47.428;15.006;2022-08-19T00:11:17;11.18;;;5.68;;
31464;SDS011;18089;47.428;15.006;2022-08-19T00:13:50;11.77;;;5.80;;
31464;SDS011;18089;47.428;15.006;2022-08-19T00:16:23;12.15;;;5.55;;
31464;SDS011;18089;47.428;15.006;2022-08-19T00:18:56;13.20;;;6.13;;
31464;SDS011;18089;47.428;15.006;2022-08-19T00:21:28;10.73;;;5.43;;
31464;SDS011;18089;47.428;15.006;2022-08-19T00:24:00;11.30;;;5.43;;
31464;SDS011;18089;47.428;15.006;2022-08-19T00:26:32;6.97;;;5.95;;
31464;SDS011;18089;47.428;15.006;2022-08-19T00:29:06;9.57;;;5.35;;
31464;SDS011;18089;47.428;15.006;2022-08-19T00:31:40;10.95;;;5.78;;
31464;SDS011;18089;47.428;15.006;2022-08-19T00:34:13;11.15;;;6.07;;
31464;SDS011;18089;47.428;15.006;2022-08-19T00:36:46;9.90;;;6.05;;
31464;SDS011;18089;47.428;15.006;2022-08-19T00:39:18;10.40;;;6.32;;
31464;SDS011;18089;47.428;15.006;2022-08-19T00:41:51;12.77;;;6.22;;
31464;SDS011;18089;47.428;15.006;2022-08-19T00:44:25;11.15;;;6.88;;
31464;SDS011;18089;47.428;15.006;2022-08-19T00:46:58;13.20;;;6.93;;
31464;SDS011;18089;47.428;15.006;2022-08-19T00:49:31;11.25;;;6.95;;
31464;SDS011;18089;47.428;15.006;2022-08-19T00:52:08;8.73;;;6.88;;
31464;SDS011;18089;47.428;15.006;2022-08-19T00:54:43;9.85;;;6.57;;
31464;SDS011;18089;47.428;15.006;2022-08-19T00:57:18;15.10;;;6.43;;
31464;SDS011;18089;47.428;15.006;2022-08-19T00:59:55;12.15;;;6.82;;
31464;SDS011;18089;47.428;15.006;2022-08-19T01:02:28;14.48;;;7.18;;
31464;SDS011;18089;47.428;15.006;2022-08-19T01:05:03;10.90;;;6.68;;
31464;SDS011;18089;47.428;15.006;2022-08-19T01:07:38;12.90;;;6.55;;
31464;SDS011;18089;47.428;15.006;2022-08-19T01:10:12;8.40;;;6.43;;
31464;SDS011;18089;47.428;15.006;2022-08-19T01:12:45;8.98;;;6.28;;
31464;SDS011;18089;47.428;15.006;2022-08-19T01:15:21;12.05;;;6.70;;
31464;SDS011;18089;47.428;15.006;2022-08-19T01:17:56;9.35;;;7.00;;
31464;SDS011;18089;47.428;15.006;2022-08-19T01:20:30;11.90;;;6.93;;
31464;SDS011;18089;47.428;15.006;2022-08-19T01:23:05;10.75;;;6.65;;
31464;SDS011;18089;47.428;15.006;2022-08-19T01:25:39;12.30;;;7.20;;
31464;SDS011;18089;47.428;15.006;2022-08-19T01:28:17;10.40;;;6.65;;
31464;SDS011;18089;47.428;15.006;2022-08-19T01:30:51;7.65;;;6.53;;
31464;SDS011;18089;47.428;15.006;2022-08-19T01:33:24;9.55;;;6.45;;
31464;SDS011;18089;47.428;15.006;2022-08-19T01:36:02;11.40;;;6.88;;
31464;SDS011;18089;47.428;15.006;2022-08-19T01:38:38;11.90;;;6.30;;
31464;SDS011;18089;47.428;15.006;2022-08-19T01:41:11;11.45;;;7.38;;
31464;SDS011;18089;47.428;15.006;2022-08-19T01:43:44;12.48;;;8.45;;
31464;SDS011;18089;47.428;15.006;2022-08-19T01:46:16;13.00;;;7.72;;
31464;SDS011;18089;47.428;15.006;2022-08-19T01:48:48;10.65;;;8.25;;
31464;SDS011;18089;47.428;15.006;2022-08-19T01:51:20;11.57;;;7.68;;
31464;SDS011;18089;47.428;15.006;2022-08-19T01:53:54;14.43;;;8.20;;
31464;SDS011;18089;47.428;15.006;2022-08-19T01:56:26;13.05;;;8.60;;
31464;SDS011;18089;47.428;15.006;2022-08-19T01:58:59;13.57;;;8.38;;
31464;SDS011;18089;47.428;15.006;2022-08-19T02:01:32;18.27;;;9.02;;
31464;SDS011;18089;47.428;15.006;2022-08-19T02:04:04;16.25;;;9.48;;
31464;SDS011;18089;47.428;15.006;2022-08-19T02:06:37;14.65;;;9.18;;
31464;SDS011;18089;47.428;15.006;2022-08-19T02:09:11;14.70;;;8.02;;
31464;SDS011;18089;47.428;15.006;2022-08-19T02:11:43;16.70;;;9.40;;
31464;SDS011;18089;47.428;15.006;2022-08-19T02:14:15;15.43;;;8.60;;
31464;SDS011;18089;47.428;15.006;2022-08-19T02:16:47;14.90;;;7.90;;
31464;SDS011;18089;47.428;15.006;2022-08-19T02:19:19;12.55;;;7.85;;
31464;SDS011;18089;47.428;15.006;2022-08-19T02:21:51;14.07;;;8.70;;
31464;SDS011;18089;47.428;15.006;2022-08-19T02:24:24;15.07;;;8.38;;
31464;SDS011;18089;47.428;15.006;2022-08-19T02:26:56;13.68;;;8.52;;
31464;SDS011;18089;47.428;15.006;2022-08-19T02:29:29;12.00;;;8.02;;
31464;SDS011;18089;47.428;15.006;2022-08-19T02:32:01;11.25;;;8.32;;
31464;SDS011;18089;47.428;15.006;2022-08-19T02:34:34;14.38;;;8.10;;
31464;SDS011;18089;47.428;15.006;2022-08-19T02:37:06;13.07;;;8.77;;
31464;SDS011;18089;47.428;15.006;2022-08-19T02:40:00;14.20;;;8.90;;
31464;SDS011;18089;47.428;15.006;2022-08-19T02:42:31;12.88;;;8.93;;
31464;SDS011;18089;47.428;15.006;2022-08-19T02:45:04;10.93;;;9.40;;
31464;SDS011;18089;47.428;15.006;2022-08-19T02:47:37;16.83;;;9.68;;
31464;SDS011;18089;47.428;15.006;2022-08-19T02:50:09;16.10;;;10.30;;
31464;SDS011;18089;47.428;15.006;2022-08-19T02:52:42;13.48;;;10.80;;
31464;SDS011;18089;47.428;15.006;2022-08-19T02:55:16;17.98;;;11.07;;
31464;SDS011;18089;47.428;15.006;2022-08-19T02:57:48;22.50;;;11.05;;
31464;SDS011;18089;47.428;15.006;2022-08-19T03:00:21;13.18;;;10.60;;
31464;SDS011;18089;47.428;15.006;2022-08-19T03:02:53;14.00;;;9.40;;
31464;SDS011;18089;47.428;15.006;2022-08-19T03:05:26;12.68;;;9.57;;
31464;SDS011;18089;47.428;15.006;2022-08-19T03:07:58;14.75;;;9.98;;
31464;SDS011;18089;47.428;15.006;2022-08-19T03:10:31;14.18;;;10.07;;
31464;SDS011;18089;47.428;15.006;2022-08-19T03:13:03;16.05;;;10.48;;
31464;SDS011;18089;47.428;15.006;2022-08-19T03:15:38;15.43;;;9.43;;
31464;SDS011;18089;47.428;15.006;2022-08-19T03:18:11;15.88;;;9.82;;
31464;SDS011;18089;47.428;15.006;2022-08-19T03:20:44;14.65;;;9.30;;
31464;SDS011;18089;47.428;15.006;2022-08-19T03:23:18;11.20;;;8.88;;
31464;SDS011;18089;47.428;15.006;2022-08-19T03:25:52;13.10;;;9.38;;
31464;SDS011;18089;47.428;15.006;2022-08-19T03:28:24;17.90;;;8.90;;
31464;SDS011;18089;47.428;15.006;2022-08-19T03:30:57;14.07;;;9.20;;
31464;SDS011;18089;47.428;15.006;2022-08-19T03:33:32;16.50;;;9.13;;
31464;SDS011;18089;47.428;15.006;2022-08-19T03:36:05;13.15;;;8.77;;
31464;SDS011;18089;47.428;15.006;2022-08-19T03:38:40;12.35;;;9.32;;
31464;SDS011;18089;47.428;15.006;2022-08-19T03:41:15;11.75;;;8.90;;
31464;SDS011;18089;47.428;15.006;2022-08-19T03:43:49;15.32;;;9.35;;
31464;SDS011;18089;47.428;15.006;2022-08-19T03:46:23;12.82;;;8.52;;
31464;SDS011;18089;47.428;15.006;2022-08-19T03:48:57;16.20;;;9.68;;
31464;SDS011;18089;47.428;15.006;2022-08-19T03:51:30;16.17;;;9.32;;
31464;SDS011;18089;47.428;15.006;2022-08-19T03:54:05;14.60;;;10.10;;
31464;SDS011;18089;47.428;15.006;2022-08-19T03:56:40;16.15;;;9.38;;
31464;SDS011;18089;47.428;15.006;2022-08-19T03:59:14;18.88;;;11.73;;
31464;SDS011;18089;47.428;15.006;2022-08-19T04:01:47;36.53;;;18.42;;
31464;SDS011;18089;47.428;15.006;2022-08-19T04:04:19;37.17;;;20.08;;
31464;SDS011;18089;47.428;15.006;2022-08-19T04:06:52;38.83;;;19.80;;
31464;SDS011;18089;47.428;15.006;2022-08-19T04:09:24;31.58;;;19.50;;
31464;SDS011;18089;47.428;15.006;2022-08-19T04:11:58;40.40;;;19.50;;
31464;SDS011;18089;47.428;15.006;2022-08-19T04:14:30;33.72;;;17.80;;
31464;SDS011;18089;47.428;15.006;2022-08-19T04:17:03;28.70;;;17.88;;
31464;SDS011;18089;47.428;15.006;2022-08-19T04:19:36;31.65;;;18.48;;
31464;SDS011;18089;47.428;15.006;2022-08-19T04:22:08;28.92;;;17.15;;
31464;SDS011;18089;47.428;15.006;2022-08-19T04:24:41;28.08;;;15.95;;
31464;SDS011;18089;47.428;15.006;2022-08-19T04:27:14;30.52;;;16.67;;
31464;SDS011;18089;47.428;15.006;2022-08-19T04:29:46;26.05;;;15.30;;
31464;SDS011;18089;47.428;15.006;2022-08-19T04:32:18;21.27;;;13.85;;
31464;SDS011;18089;47.428;15.006;2022-08-19T04:34:51;23.13;;;13.75;;
31464;SDS011;18089;47.428;15.006;2022-08-19T04:37:26;18.48;;;12.77;;
31464;SDS011;18089;47.428;15.006;2022-08-19T04:40:04;20.67;;;12.85;;
31464;SDS011;18089;47.428;15.006;2022-08-19T04:42:55;18.65;;;11.55;;
31464;SDS011;18089;47.428;15.006;2022-08-19T04:45:27;17.05;;;11.70;;
31464;SDS011;18089;47.428;15.006;2022-08-19T04:47:59;19.83;;;12.00;;
31464;SDS011;18089;47.428;15.006;2022-08-19T04:50:31;14.93;;;11.23;;
31464;SDS011;18089;47.428;15.006;2022-08-19T04:53:04;20.38;;;12.75;;
31464;SDS011;18089;47.428;15.006;2022-08-19T04:55:38;16.88;;;12.32;;
31464;SDS011;18089;47.428;15.006;2022-08-19T04:58:12;27.90;;;16.35;;
31464;SDS011;18089;47.428;15.006;2022-08-19T05:00:46;18.77;;;13.27;;
31464;SDS011;18089;47.428;15.006;2022-08-19T05:03:18;22.20;;;14.80;;
31464;SDS011;18089;47.428;15.006;2022-08-19T05:05:50;19.25;;;13.13;;
31464;SDS011;18089;47.428;15.006;2022-08-19T05:08:23;19.75;;;12.70;;
31464;SDS011;18089;47.428;15.006;2022-08-19T05:10:55;20.65;;;13.48;;
31464;SDS011;18089;47.428;15.006;2022-08-19T05:13:29;17.27;;;11.07;;
31464;SDS011;18089;47.428;15.006;2022-08-19T05:16:01;18.92;;;12.90;;
31464;SDS011;18089;47.428;15.006;2022-08-19T05:18:33;21.73;;;12.38;;
31464;SDS011;18089;47.428;15.006;2022-08-19T05:21:23;18.92;;;12.32;;
31464;SDS011;18089;47.428;15.006;2022-08-19T05:24:13;15.32;;;11.60;;
31464;SDS011;18089;47.428;15.006;2022-08-19T05:26:47;18.55;;;12.68;;
31464;SDS011;18089;47.428;15.006;2022-08-19T05:29:21;16.25;;;11.60;;
31464;SDS011;18089;47.428;15.006;2022-08-19T05:31:54;20.13;;;12.18;;
31464;SDS011;18089;47.428;15.006;2022-08-19T05:34:27;16.67;;;11.73;;
31464;SDS011;18089;47.428;15.006;2022-08-19T05:36:59;17.55;;;11.55;;
31464;SDS011;18089;47.428;15.006;2022-08-19T05:39:34;17.80;;;11.80;;
31464;SDS011;18089;47.428;15.006;2022-08-19T05:42:07;18.85;;;11.88;;
31464;SDS011;18089;47.428;15.006;2022-08-19T05:44:42;20.10;;;13.55;;
31464;SDS011;18089;47.428;15.006;2022-08-19T05:47:15;17.05;;;12.65;;
31464;SDS011;18089;47.428;15.006;2022-08-19T05:49:49;16.85;;;12.13;;
31464;SDS011;18089;47.428;15.006;2022-08-19T05:52:21;19.00;;;12.63;;
31464;SDS011;18089;47.428;15.006;2022-08-19T05:54:53;15.30;;;11.65;;
31464;SDS011;18089;47.428;15.006;2022-08-19T05:57:26;20.52;;;11.55;;
31464;SDS011;18089;47.428;15.006;2022-08-19T06:00:00;16.10;;;11.32;;
31464;SDS011;18089;47.428;15.006;2022-08-19T06:02:35;13.40;;;10.38;;
31464;SDS011;18089;47.428;15.006;2022-08-19T06:05:07;15.73;;;9.80;;
31464;SDS011;18089;47.428;15.006;2022-08-19T06:07:40;12.35;;;9.35;;
31464;SDS011;18089;47.428;15.006;2022-08-19T06:10:12;10.50;;;8.30;;
31464;SDS011;18089;47.428;15.006;2022-08-19T06:12:44;10.63;;;7.90;;
31464;SDS011;18089;47.428;15.006;2022-08-19T06:15:17;10.15;;;6.68;;
31464;SDS011;18089;47.428;15.006;2022-08-19T06:17:49;8.95;;;6.60;;
31464;SDS011;18089;47.428;15.006;2022-08-19T06:20:22;10.93;;;7.20;;
31464;SDS011;18089;47.428;15.006;2022-08-19T06:22:54;8.30;;;7.07;;
31464;SDS011;18089;47.428;15.006;2022-08-19T06:25:25;10.27;;;6.65;;
31464;SDS011;18089;47.428;15.006;2022-08-19T06:27:58;8.70;;;6.32;;
31464;SDS011;18089;47.428;15.006;2022-08-19T06:30:31;10.57;;;7.60;;
31464;SDS011;18089;47.428;15.006;2022-08-19T06:33:03;9.20;;;7.00;;
31464;SDS011;18089;47.428;15.006;2022-08-19T06:35:38;8.77;;;7.35;;
31464;SDS011;18089;47.428;15.006;2022-08-19T06:38:10;7.72;;;6.80;;
31464;SDS011;18089;47.428;15.006;2022-08-19T06:40:42;8.50;;;6.28;;
31464;SDS011;18089;47.428;15.006;2022-08-19T06:43:14;14.60;;;9.70;;
31464;SDS011;18089;47.428;15.006;2022-08-19T06:45:48;11.15;;;9.07;;
31464;SDS011;18089;47.428;15.006;2022-08-19T06:48:22;32.42;;;24.83;;
31464;SDS011;18089;47.428;15.006;2022-08-19T06:50:54;11.70;;;7.72;;
31464;SDS011;18089;47.428;15.006;2022-08-19T06:53:26;16.67;;;12.70;;
31464;SDS011;18089;47.428;15.006;2022-08-19T06:55:58;9.95;;;7.32;;
31464;SDS011;18089;47.428;15.006;2022-08-19T06:58:32;9.90;;;7.53;;
31464;SDS011;18089;47.428;15.006;2022-08-19T07:01:06;9.80;;;7.68;;
31464;SDS011;18089;47.428;15.006;2022-08-19T07:03:39;8.57;;;7.20;;
31464;SDS011;18089;47.428;15.006;2022-08-19T07:06:12;9.60;;;7.75;;
31464;SDS011;18089;47.428;15.006;2022-08-19T07:08:45;12.13;;;8.65;;
31464;SDS011;18089;47.428;15.006;2022-08-19T07:11:18;9.60;;;7.40;;
31464;SDS011;18089;47.428;15.006;2022-08-19T07:13:50;10.85;;;7.65;;
31464;SDS011;18089;47.428;15.006;2022-08-19T07:16:24;20.55;;;11.82;;
31464;SDS011;18089;47.428;15.006;2022-08-19T07:18:57;9.07;;;7.18;;
31464;SDS011;18089;47.428;15.006;2022-08-19T07:21:29;18.30;;;13.02;;
31464;SDS011;18089;47.428;15.006;2022-08-19T07:24:02;16.27;;;10.32;;
31464;SDS011;18089;47.428;15.006;2022-08-19T07:26:37;10.63;;;8.07;;
31464;SDS011;18089;47.428;15.006;2022-08-19T07:29:10;10.57;;;7.95;;
31464;SDS011;18089;47.428;15.006;2022-08-19T07:31:44;12.10;;;7.88;;
31464;SDS011;18089;47.428;15.006;2022-08-19T07:34:17;10.20;;;7.25;;
31464;SDS011;18089;47.428;15.006;2022-08-19T07:36:50;11.27;;;7.70;;
31464;SDS011;18089;47.428;15.006;2022-08-19T07:39:24;9.15;;;7.68;;
31464;SDS011;18089;47.428;15.006;2022-08-19T07:41:57;11.95;;;8.43;;
31464;SDS011;18089;47.428;15.006;2022-08-19T07:44:30;10.77;;;8.68;;
31464;SDS011;18089;47.428;15.006;2022-08-19T07:47:05;12.65;;;10.20;;
31464;SDS011;18089;47.428;15.006;2022-08-19T07:49:37;11.43;;;10.25;;
31464;SDS011;18089;47.428;15.006;2022-08-19T07:52:10;13.65;;;10.07;;
31464;SDS011;18089;47.428;15.006;2022-08-19T07:54:42;13.98;;;10.48;;
31464;SDS011;18089;47.428;15.006;2022-08-19T07:57:14;11.10;;;9.52;;
31464;SDS011;18089;47.428;15.006;2022-08-19T07:59:46;11.45;;;9.77;;
31464;SDS011;18089;47.428;15.006;2022-08-19T08:02:20;12.27;;;9.85;;
31464;SDS011;18089;47.428;15.006;2022-08-19T08:04:52;12.30;;;9.02;;
31464;SDS011;18089;47.428;15.006;2022-08-19T08:07:41;10.43;;;8.10;;
31464;SDS011;18089;47.428;15.006;2022-08-19T08:10:31;10.27;;;8.98;;
31464;SDS011;18089;47.428;15.006;2022-08-19T08:13:03;10.95;;;9.85;;
31464;SDS011;18089;47.428;15.006;2022-08-19T08:15:35;9.80;;;8.30;;
31464;SDS011;18089;47.428;15.006;2022-08-19T08:18:10;9.27;;;8.30;;
31464;SDS011;18089;47.428;15.006;2022-08-19T08:20:42;9.00;;;8.00;;
31464;SDS011;18089;47.428;15.006;2022-08-19T08:23:14;11.25;;;7.22;;
31464;SDS011;18089;47.428;15.006;2022-08-19T08:25:56;8.30;;;7.50;;
31464;SDS011;18089;47.428;15.006;2022-08-19T08:28:29;8.98;;;7.85;;
31464;SDS011;18089;47.428;15.006;2022-08-19T08:31:01;9.18;;;7.47;;
31464;SDS011;18089;47.428;15.006;2022-08-19T08:33:34;12.52;;;7.40;;
31464;SDS011;18089;47.428;15.006;2022-08-19T08:36:06;11.35;;;7.18;;
31464;SDS011;18089;47.428;15.006;2022-08-19T08:38:39;10.25;;;7.53;;
31464;SDS011;18089;47.428;15.006;2022-08-19T08:41:13;11.10;;;8.95;;
31464;SDS011;18089;47.428;15.006;2022-08-19T08:43:51;10.25;;;8.43;;
31464;SDS011;18089;47.428;15.006;2022-08-19T08:46:25;8.25;;;6.22;;
31464;SDS011;18089;47.428;15.006;2022-08-19T08:49:04;9.13;;;6.28;;
31464;SDS011;18089;47.428;15.006;2022-08-19T08:51:47;9.00;;;6.40;;
31464;SDS011;18089;47.428;15.006;2022-08-19T08:54:24;5.82;;;5.03;;
31464;SDS011;18089;47.428;15.006;2022-08-19T08:56:59;8.27;;;5.78;;
31464;SDS011;18089;47.428;15.006;2022-08-19T08:59:33;6.75;;;5.28;;
31464;SDS011;18089;47.428;15.006;2022-08-19T09:02:07;11.13;;;5.97;;
31464;SDS011;18089;47.428;15.006;2022-08-19T09:04:41;7.53;;;5.00;;
31464;SDS011;18089;47.428;15.006;2022-08-19T09:07:16;7.50;;;4.97;;
31464;SDS011;18089;47.428;15.006;2022-08-19T09:09:55;8.10;;;5.88;;
31464;SDS011;18089;47.428;15.006;2022-08-19T09:12:34;6.90;;;4.95;;
31464;SDS011;18089;47.428;15.006;2022-08-19T09:15:11;9.70;;;4.90;;
31464;SDS011;18089;47.428;15.006;2022-08-19T09:17:44;7.82;;;4.93;;
31464;SDS011;18089;47.428;15.006;2022-08-19T09:20:20;9.82;;;4.80;;
31464;SDS011;18089;47.428;15.006;2022-08-19T09:22:53;6.57;;;4.72;;
31464;SDS011;18089;47.428;15.006;2022-08-19T09:25:25;7.93;;;5.20;;
31464;SDS011;18089;47.428;15.006;2022-08-19T09:27:57;7.43;;;4.82;;
31464;SDS011;18089;47.428;15.006;2022-08-19T09:30:33;9.45;;;4.70;;
31464;SDS011;18089;47.428;15.006;2022-08-19T09:33:10;9.32;;;5.18;;
31464;SDS011;18089;47.428;15.006;2022-08-19T09:35:43;10.00;;;5.00;;
31464;SDS011;18089;47.428;15.006;2022-08-19T09:38:16;8.30;;;5.13;;
31464;SDS011;18089;47.428;15.006;2022-08-19T09:40:48;9.85;;;4.75;;
31464;SDS011;18089;47.428;15.006;2022-08-19T09:43:20;10.23;;;5.00;;
31464;SDS011;18089;47.428;15.006;2022-08-19T09:45:52;7.13;;;4.53;;
31464;SDS011;18089;47.428;15.006;2022-08-19T09:48:24;6.05;;;4.32;;
31464;SDS011;18089;47.428;15.006;2022-08-19T09:51:03;6.65;;;4.57;;
31464;SDS011;18089;47.428;15.006;2022-08-19T09:53:38;6.85;;;4.38;;
31464;SDS011;18089;47.428;15.006;2022-08-19T09:56:10;8.15;;;4.53;;
31464;SDS011;18089;47.428;15.006;2022-08-19T09:58:43;8.20;;;4.60;;
31464;SDS011;18089;47.428;15.006;2022-08-19T10:01:15;6.88;;;5.00;;
31464;SDS011;18089;47.428;15.006;2022-08-19T10:03:49;5.90;;;4.60;;
31464;SDS011;18089;47.428;15.006;2022-08-19T10:06:25;7.30;;;4.50;;
31464;SDS011;18089;47.428;15.006;2022-08-19T10:09:02;6.63;;;4.60;;
31464;SDS011;18089;47.428;15.006;2022-08-19T10:11:36;7.55;;;4.88;;
31464;SDS011;18089;47.428;15.006;2022-08-19T10:14:11;7.53;;;4.75;;
31464;SDS011;18089;47.428;15.006;2022-08-19T10:16:43;6.65;;;4.60;;
31464;SDS011;18089;47.428;15.006;2022-08-19T10:19:15;5.47;;;4.70;;
31464;SDS011;18089;47.428;15.006;2022-08-19T10:21:48;5.50;;;4.45;;
31464;SDS011;18089;47.428;15.006;2022-08-19T10:24:20;8.88;;;4.85;;
31464;SDS011;18089;47.428;15.006;2022-08-19T10:26:54;8.05;;;4.88;;
31464;SDS011;18089;47.428;15.006;2022-08-19T10:29:27;7.65;;;5.10;;
31464;SDS011;18089;47.428;15.006;2022-08-19T10:31:59;8.15;;;4.70;;
31464;SDS011;18089;47.428;15.006;2022-08-19T10:34:32;9.90;;;4.25;;
31464;SDS011;18089;47.428;15.006;2022-08-19T10:37:06;9.52;;;4.50;;
31464;SDS011;18089;47.428;15.006;2022-08-19T10:39:38;7.72;;;4.60;;
31464;SDS011;18089;47.428;15.006;2022-08-19T10:42:10;6.25;;;4.22;;
31464;SDS011;18089;47.428;15.006;2022-08-19T10:44:43;10.10;;;5.00;;
31464;SDS011;18089;47.428;15.006;2022-08-19T10:47:16;12.57;;;5.53;;
31464;SDS011;18089;47.428;15.006;2022-08-19T10:49:48;12.18;;;5.10;;
31464;SDS011;18089;47.428;15.006;2022-08-19T10:52:40;8.20;;;5.50;;
31464;SDS011;18089;47.428;15.006;2022-08-19T10:55:12;12.25;;;5.95;;
31464;SDS011;18089;47.428;15.006;2022-08-19T10:58:02;7.95;;;5.60;;
31464;SDS011;18089;47.428;15.006;2022-08-19T11:00:34;11.02;;;5.80;;
31464;SDS011;18089;47.428;15.006;2022-08-19T11:03:07;10.75;;;5.95;;
31464;SDS011;18089;47.428;15.006;2022-08-19T11:05:39;11.85;;;5.55;;
31464;SDS011;18089;47.428;15.006;2022-08-19T11:08:12;7.60;;;5.40;;
31464;SDS011;18089;47.428;15.006;2022-08-19T11:10:44;8.30;;;5.60;;
31464;SDS011;18089;47.428;15.006;2022-08-19T11:13:16;9.18;;;5.20;;
31464;SDS011;18089;47.428;15.006;2022-08-19T11:15:55;7.47;;;4.97;;
31464;SDS011;18089;47.428;15.006;2022-08-19T11:18:28;8.40;;;5.05;;
31464;SDS011;18089;47.428;15.006;2022-08-19T11:21:07;5.90;;;4.75;;
31464;SDS011;18089;47.428;15.006;2022-08-19T11:23:42;12.23;;;5.22;;
31464;SDS011;18089;47.428;15.006;2022-08-19T11:26:14;9.60;;;4.85;;
31464;SDS011;18089;47.428;15.006;2022-08-19T11:28:47;11.80;;;5.00;;
31464;SDS011;18089;47.428;15.006;2022-08-19T11:31:21;9.32;;;5.10;;
31464;SDS011;18089;47.428;15.006;2022-08-19T11:33:56;8.07;;;5.05;;
31464;SDS011;18089;47.428;15.006;2022-08-19T11:36:29;12.05;;;5.30;;
31464;SDS011;18089;47.428;15.006;2022-08-19T11:39:04;8.70;;;5.43;;
31464;SDS011;18089;47.428;15.006;2022-08-19T11:41:36;9.70;;;4.88;;
31464;SDS011;18089;47.428;15.006;2022-08-19T11:44:09;5.68;;;4.22;;
31464;SDS011;18089;47.428;15.006;2022-08-19T11:46:44;8.43;;;4.30;;
31464;SDS011;18089;47.428;15.006;2022-08-19T11:49:17;8.07;;;4.20;;
31464;SDS011;18089;47.428;15.006;2022-08-19T11:51:51;6.28;;;3.80;;
31464;SDS011;18089;47.428;15.006;2022-08-19T11:54:24;10.18;;;3.83;;
31464;SDS011;18089;47.428;15.006;2022-08-19T11:56:56;6.72;;;3.80;;
31464;SDS011;18089;47.428;15.006;2022-08-19T11:59:29;7.28;;;4.35;;
31464;SDS011;18089;47.428;15.006;2022-08-19T12:02:01;6.03;;;3.70;;
31464;SDS011;18089;47.428;15.006;2022-08-19T12:04:34;10.18;;;4.28;;
31464;SDS011;18089;47.428;15.006;2022-08-19T12:07:06;5.85;;;3.35;;
31464;SDS011;18089;47.428;15.006;2022-08-19T12:09:39;6.65;;;3.33;;
31464;SDS011;18089;47.428;15.006;2022-08-19T12:12:11;7.70;;;3.30;;
31464;SDS011;18089;47.428;15.006;2022-08-19T12:14:44;6.32;;;2.88;;
31464;SDS011;18089;47.428;15.006;2022-08-19T12:17:16;6.75;;;3.30;;
31464;SDS011;18089;47.428;15.006;2022-08-19T12:19:48;5.30;;;3.05;;
31464;SDS011;18089;47.428;15.006;2022-08-19T12:22:20;5.15;;;3.28;;
31464;SDS011;18089;47.428;15.006;2022-08-19T12:24:54;6.88;;;2.67;;
31464;SDS011;18089;47.428;15.006;2022-08-19T12:27:26;6.55;;;2.88;;
31464;SDS011;18089;47.428;15.006;2022-08-19T12:29:58;8.52;;;2.92;;
31464;SDS011;18089;47.428;15.006;2022-08-19T12:32:31;6.65;;;3.15;;
31464;SDS011;18089;47.428;15.006;2022-08-19T12:35:04;4.93;;;2.70;;
31464;SDS011;18089;47.428;15.006;2022-08-19T12:37:36;7.22;;;3.00;;
31464;SDS011;18089;47.428;15.006;2022-08-19T12:40:11;7.90;;;2.70;;
31464;SDS011;18089;47.428;15.006;2022-08-19T12:42:43;7.13;;;3.10;;
31464;SDS011;18089;47.428;15.006;2022-08-19T12:45:16;4.82;;;2.90;;
31464;SDS011;18089;47.428;15.006;2022-08-19T12:47:48;6.22;;;2.95;;
31464;SDS011;18089;47.428;15.006;2022-08-19T12:50:21;9.40;;;3.17;;
31464;SDS011;18089;47.428;15.006;2022-08-19T12:52:53;6.22;;;2.75;;
31464;SDS011;18089;47.428;15.006;2022-08-19T12:55:27;11.45;;;2.80;;
31464;SDS011;18089;47.428;15.006;2022-08-19T12:58:00;7.05;;;3.40;;
31464;SDS011;18089;47.428;15.006;2022-08-19T13:00:32;6.97;;;3.10;;
31464;SDS011;18089;47.428;15.006;2022-08-19T13:03:04;7.65;;;3.38;;
31464;SDS011;18089;47.428;15.006;2022-08-19T13:05:36;9.07;;;2.95;;
31464;SDS011;18089;47.428;15.006;2022-08-19T13:08:08;13.05;;;3.67;;
31464;SDS011;18089;47.428;15.006;2022-08-19T13:10:44;7.93;;;2.90;;
31464;SDS011;18089;47.428;15.006;2022-08-19T13:13:16;6.50;;;2.90;;
31464;SDS011;18089;47.428;15.006;2022-08-19T13:15:48;10.38;;;3.03;;
31464;SDS011;18089;47.428;15.006;2022-08-19T13:18:21;8.13;;;2.85;;
31464;SDS011;18089;47.428;15.006;2022-08-19T13:20:54;7.50;;;2.45;;
31464;SDS011;18089;47.428;15.006;2022-08-19T13:23:26;9.80;;;3.08;;
31464;SDS011;18089;47.428;15.006;2022-08-19T13:26:00;10.27;;;2.60;;
31464;SDS011;18089;47.428;15.006;2022-08-19T13:28:34;7.03;;;2.22;;
31464;SDS011;18089;47.428;15.006;2022-08-19T13:31:25;8.38;;;3.03;;
31464;SDS011;18089;47.428;15.006;2022-08-19T13:34:15;12.95;;;2.60;;
31464;SDS011;18089;47.428;15.006;2022-08-19T13:36:49;12.93;;;2.90;;
31464;SDS011;18089;47.428;15.006;2022-08-19T13:39:21;7.22;;;2.50;;
31464;SDS011;18089;47.428;15.006;2022-08-19T13:41:55;11.32;;;3.22;;
31464;SDS011;18089;47.428;15.006;2022-08-19T13:44:28;8.48;;;3.20;;
31464;SDS011;18089;47.428;15.006;2022-08-19T13:47:01;9.77;;;2.90;;
31464;SDS011;18089;47.428;15.006;2022-08-19T13:49:35;7.60;;;2.88;;
31464;SDS011;18089;47.428;15.006;2022-08-19T13:52:07;8.15;;;2.80;;
31464;SDS011;18089;47.428;15.006;2022-08-19T13:54:40;10.10;;;2.60;;
31464;SDS011;18089;47.428;15.006;2022-08-19T13:57:14;9.82;;;3.13;;
31464;SDS011;18089;47.428;15.006;2022-08-19T13:59:46;11.18;;;3.60;;
31464;SDS011;18089;47.428;15.006;2022-08-19T14:02:18;7.93;;;2.78;;
31464;SDS011;18089;47.428;15.006;2022-08-19T14:04:50;7.28;;;3.05;;
31464;SDS011;18089;47.428;15.006;2022-08-19T14:07:22;15.55;;;3.28;;
31464;SDS011;18089;47.428;15.006;2022-08-19T14:09:54;7.88;;;2.53;;
31464;SDS011;18089;47.428;15.006;2022-08-19T14:12:28;9.93;;;2.60;;
31464;SDS011;18089;47.428;15.006;2022-08-19T14:15:02;8.15;;;3.25;;
31464;SDS011;18089;47.428;15.006;2022-08-19T14:17:37;9.85;;;2.95;;
31464;SDS011;18089;47.428;15.006;2022-08-19T14:20:09;7.95;;;3.25;;
31464;SDS011;18089;47.428;15.006;2022-08-19T14:22:42;8.73;;;2.90;;
31464;SDS011;18089;47.428;15.006;2022-08-19T14:25:16;6.57;;;2.75;;
31464;SDS011;18089;47.428;15.006;2022-08-19T14:27:51;9.15;;;3.35;;
31464;SDS011;18089;47.428;15.006;2022-08-19T14:30:24;11.95;;;3.08;;
31464;SDS011;18089;47.428;15.006;2022-08-19T14:32:58;12.43;;;3.13;;
31464;SDS011;18089;47.428;15.006;2022-08-19T14:35:32;9.43;;;3.70;;
31464;SDS011;18089;47.428;15.006;2022-08-19T14:38:05;32.83;;;24.10;;
31464;SDS011;18089;47.428;15.006;2022-08-19T14:40:38;13.20;;;6.15;;
31464;SDS011;18089;47.428;15.006;2022-08-19T14:43:13;11.90;;;3.25;;
31464;SDS011;18089;47.428;15.006;2022-08-19T14:45:45;14.73;;;3.67;;
31464;SDS011;18089;47.428;15.006;2022-08-19T14:48:17;12.68;;;3.97;;
31464;SDS011;18089;47.428;15.006;2022-08-19T14:50:49;7.38;;;3.17;;
31464;SDS011;18089;47.428;15.006;2022-08-19T14:53:22;15.05;;;3.28;;
31464;SDS011;18089;47.428;15.006;2022-08-19T14:55:54;12.88;;;4.32;;
31464;SDS011;18089;47.428;15.006;2022-08-19T14:58:27;11.73;;;3.42;;
31464;SDS011;18089;47.428;15.006;2022-08-19T15:01:00;13.60;;;3.50;;